Terminal Aerodrome Forecast
Issued by NWS Austin/San Antonio, TX

Home | Current Version | Previous Version | Text Only | Print | Product List | Glossary On
Versions: 1 2 3 4 5 6 7 8 9 10 11 12 13 14 15 16 17 18 19 20 21 22
637
FTUS44 KEWX 271120
TAFSAT
TAF
KSAT 271120Z 2712/2818 13003KT P6SM BKN012
     FM271600 17008KT P6SM BKN035
     FM271800 16010KT P6SM VCTS BKN050CB
     FM272200 14010KT P6SM SCT050 BKN150
     FM280700 14005KT P6SM BKN012=

USA.gov is the U.S. government's official web portal to all federal, state and local government web resources and services.